createdAt,value
2022-09-25T00:00:24.665Z,50.62
2022-09-25T00:03:28.765Z,51.24
2022-09-25T00:06:33.035Z,50.69
2022-09-25T00:09:34.973Z,51.21
2022-09-25T00:12:36.901Z,51.37
2022-09-25T00:15:39.029Z,51.00
2022-09-25T00:19:00.227Z,50.63
2022-09-25T00:22:02.163Z,50.69
2022-09-25T00:25:04.496Z,51.34
2022-09-25T00:28:06.536Z,51.36
2022-09-25T00:31:10.212Z,50.95
2022-09-25T00:34:12.452Z,50.56
2022-09-25T00:37:14.488Z,50.47
2022-09-25T00:40:16.693Z,50.58
2022-09-25T00:43:40.027Z,50.59
2022-09-25T00:46:44.305Z,51.40
2022-09-25T00:49:47.487Z,50.83
2022-09-25T00:52:51.644Z,51.11
2022-09-25T00:55:55.342Z,50.41
2022-09-25T00:58:57.523Z,51.07
2022-09-25T01:01:59.972Z,50.92
2022-09-25T01:05:08.188Z,50.40
2022-09-25T01:08:14.765Z,50.48
2022-09-25T01:11:17.464Z,51.49
2022-09-25T01:14:19.461Z,50.59
2022-09-25T01:17:34.644Z,50.40
2022-09-25T01:20:53.438Z,51.30
2022-09-25T01:24:13.658Z,50.85
2022-09-25T01:27:46.106Z,50.96
2022-09-25T01:30:53.009Z,51.07
2022-09-25T01:34:00.899Z,50.37
2022-09-25T01:37:47.779Z,50.73
2022-09-25T01:40:58.585Z,50.26
2022-09-25T01:44:06.337Z,50.74
2022-09-25T01:47:12.510Z,49.96
2022-09-25T01:50:24.114Z,50.76
2022-09-25T01:53:45.765Z,50.31
2022-09-25T01:56:55.646Z,50.06
2022-09-25T02:00:15.882Z,50.94
2022-09-25T02:03:29.026Z,50.50
2022-09-25T02:06:32.985Z,49.96
2022-09-25T02:09:40.981Z,50.92
2022-09-25T02:12:47.710Z,51.15
2022-09-25T02:15:55.486Z,50.04
2022-09-25T02:19:17.431Z,50.19
2022-09-25T02:22:23.445Z,50.03
2022-09-25T02:25:35.988Z,50.38
2022-09-25T02:28:39.256Z,50.94
2022-09-25T02:31:49.367Z,50.75
2022-09-25T02:34:52.682Z,50.11
2022-09-25T02:37:57.165Z,50.04
2022-09-25T02:41:10.665Z,50.50
2022-09-25T02:44:29.213Z,50.70
2022-09-25T02:47:56.688Z,49.90
2022-09-25T02:51:14.345Z,50.66
2022-09-25T02:54:31.573Z,50.33
2022-09-25T02:57:49.212Z,50.22
2022-09-25T03:00:54.886Z,50.06
2022-09-25T03:04:00.024Z,50.79
2022-09-25T03:07:02.500Z,50.79
2022-09-25T03:10:05.616Z,49.93
2022-09-25T03:13:17.768Z,49.80
2022-09-25T03:16:34.585Z,49.51
2022-09-25T03:19:36.790Z,49.99
2022-09-25T03:22:38.709Z,49.76
2022-09-25T03:25:42.798Z,50.15
2022-09-25T03:28:48.208Z,49.93
2022-09-25T03:31:50.116Z,50.14
2022-09-25T03:34:52.091Z,49.53
2022-09-25T03:37:53.994Z,49.79
2022-09-25T03:40:56.055Z,49.51
2022-09-25T03:43:58.871Z,49.62
2022-09-25T03:47:00.794Z,49.39
2022-09-25T03:50:02.761Z,49.61
2022-09-25T03:53:05.271Z,50.02
2022-09-25T03:56:11.193Z,50.35
2022-09-25T03:59:13.117Z,49.96
2022-09-25T04:02:15.088Z,50.36
2022-09-25T04:05:19.039Z,49.36
2022-09-25T04:08:20.965Z,50.40
2022-09-25T04:11:24.587Z,50.10
2022-09-25T04:14:26.489Z,49.19
2022-09-25T04:17:29.429Z,49.96
2022-09-25T04:20:31.420Z,50.31
2022-09-25T04:23:33.455Z,49.95
2022-09-25T04:26:35.961Z,49.79
2022-09-25T04:29:38.036Z,49.36
2022-09-25T04:33:18.582Z,49.57
2022-09-25T04:36:20.597Z,49.45
2022-09-25T04:39:22.587Z,49.37
2022-09-25T04:42:25.548Z,49.27
2022-09-25T04:45:28.359Z,49.29
2022-09-25T04:48:31.304Z,50.10
2022-09-25T04:51:33.157Z,48.92
2022-09-25T04:54:35.151Z,49.75
2022-09-25T04:57:57.683Z,49.61
2022-09-25T05:01:05.178Z,49.07
2022-09-25T05:04:08.884Z,49.83
2022-09-25T05:07:11.182Z,48.91
2022-09-25T05:10:14.832Z,49.57
2022-09-25T05:13:16.771Z,49.09
2022-09-25T05:16:19.867Z,49.67
2022-09-25T05:19:21.844Z,49.83
2022-09-25T05:22:23.863Z,49.25
2022-09-25T05:25:26.756Z,49.00
2022-09-25T05:28:32.685Z,49.14
2022-09-25T05:31:34.945Z,49.36
2022-09-25T05:34:36.929Z,49.88
2022-09-25T05:37:38.919Z,49.61
2022-09-25T05:40:40.917Z,49.37
2022-09-25T05:43:47.626Z,48.93
2022-09-25T05:46:49.896Z,49.59
2022-09-25T05:49:51.919Z,49.61
2022-09-25T05:53:02.046Z,49.17
2022-09-25T05:56:05.405Z,48.94
2022-09-25T05:59:07.308Z,49.61
2022-09-25T06:02:12.641Z,49.63
2022-09-25T06:05:14.846Z,49.24
2022-09-25T06:08:16.852Z,49.58
2022-09-25T06:11:18.720Z,48.97
2022-09-25T06:14:21.340Z,49.04
2022-09-25T06:17:23.234Z,49.23
2022-09-25T06:20:25.509Z,49.28
2022-09-25T06:23:27.691Z,49.62
2022-09-25T06:26:29.819Z,49.74
2022-09-25T06:29:31.937Z,49.04
2022-09-25T06:32:34.207Z,49.83
2022-09-25T06:35:40.656Z,49.97
2022-09-25T06:38:42.618Z,50.15
2022-09-25T06:41:44.650Z,49.50
2022-09-25T06:44:46.847Z,49.20
2022-09-25T06:47:48.861Z,49.75
2022-09-25T06:50:56.625Z,49.79
2022-09-25T06:53:59.141Z,49.02
2022-09-25T06:57:01.185Z,49.68
2022-09-25T07:00:05.358Z,49.14
2022-09-25T07:03:25.808Z,49.50
2022-09-25T07:06:29.059Z,49.24
2022-09-25T07:09:30.995Z,49.20
2022-09-25T07:12:33.599Z,49.26
2022-09-25T07:15:35.686Z,49.08
2022-09-25T07:18:38.010Z,49.03
2022-09-25T07:21:40.162Z,49.17
2022-09-25T07:24:42.110Z,49.16
2022-09-25T07:27:44.078Z,49.33
2022-09-25T07:30:48.301Z,49.56
2022-09-25T07:33:50.418Z,50.29
2022-09-25T07:36:53.043Z,50.20
2022-09-25T07:39:55.414Z,49.80
2022-09-25T07:43:01.397Z,49.79
2022-09-25T07:46:03.396Z,49.80
2022-09-25T07:49:05.516Z,50.37
2022-09-25T07:52:07.476Z,49.60
2022-09-25T07:55:09.763Z,49.71
2022-09-25T07:58:12.163Z,49.75
2022-09-25T08:01:14.335Z,50.10
2022-09-25T08:04:16.312Z,50.61
2022-09-25T08:07:18.279Z,50.25
2022-09-25T08:10:21.196Z,50.38
2022-09-25T08:13:23.192Z,50.13
2022-09-25T08:16:25.258Z,49.77
2022-09-25T08:19:28.045Z,49.36
2022-09-25T08:22:30.050Z,49.61
2022-09-25T08:25:32.049Z,49.28
2022-09-25T08:28:34.363Z,50.12
2022-09-25T08:31:36.503Z,49.53
2022-09-25T08:34:41.485Z,49.45
2022-09-25T08:37:46.176Z,49.98
2022-09-25T08:41:13.184Z,49.85
2022-09-25T08:44:24.428Z,50.04
2022-09-25T08:47:46.494Z,49.53
2022-09-25T08:50:49.541Z,49.97
2022-09-25T08:53:51.556Z,49.62
2022-09-25T08:57:01.609Z,50.18
2022-09-25T09:00:18.197Z,50.07
2022-09-25T09:03:24.436Z,50.49
2022-09-25T09:06:29.708Z,50.30
2022-09-25T09:09:40.875Z,49.70
2022-09-25T09:12:51.587Z,50.22
2022-09-25T09:16:01.695Z,50.11
2022-09-25T09:19:07.016Z,50.14
2022-09-25T09:22:14.562Z,49.15
2022-09-25T09:25:39.427Z,49.79
2022-09-25T09:29:20.096Z,49.38
2022-09-25T09:32:41.599Z,50.04
2022-09-25T09:36:14.569Z,50.17
2022-09-25T09:39:38.299Z,49.65
2022-09-25T09:42:49.754Z,49.17
2022-09-25T09:46:03.077Z,49.26
2022-09-25T09:49:26.336Z,49.37
2022-09-25T09:52:42.419Z,49.00
2022-09-25T09:55:52.860Z,49.37
2022-09-25T09:58:58.577Z,49.00
2022-09-25T10:02:18.035Z,48.95
2022-09-25T10:05:30.297Z,48.79
2022-09-25T10:08:32.242Z,48.28
2022-09-25T10:11:34.543Z,48.60
2022-09-25T10:14:41.211Z,48.74
2022-09-25T10:17:43.831Z,48.51
2022-09-25T10:20:48.237Z,48.69
2022-09-25T10:23:55.325Z,48.10
2022-09-25T10:27:20.187Z,47.42
2022-09-25T10:30:22.570Z,48.15
2022-09-25T10:33:27.606Z,47.79
2022-09-25T10:36:37.697Z,48.11
2022-09-25T10:39:45.055Z,48.25
2022-09-25T10:42:47.304Z,48.55
2022-09-25T10:46:09.688Z,47.57
2022-09-25T10:49:37.918Z,47.33
2022-09-25T10:52:50.262Z,46.72
2022-09-25T10:55:54.811Z,46.86
2022-09-25T10:59:01.867Z,47.40
2022-09-25T11:02:18.028Z,44.53
2022-09-25T11:05:38.504Z,44.80
2022-09-25T11:08:42.143Z,45.51
2022-09-25T11:11:47.068Z,47.10
2022-09-25T11:14:58.914Z,47.84
2022-09-25T11:18:01.329Z,47.80
2022-09-25T11:21:05.812Z,48.12
2022-09-25T11:24:17.676Z,48.46
2022-09-25T11:27:24.060Z,48.24
2022-09-25T11:30:32.484Z,47.08
2022-09-25T11:33:43.726Z,47.98
2022-09-25T11:37:04.579Z,47.23
2022-09-25T11:40:46.367Z,45.37
2022-09-25T11:44:22.995Z,46.72
2022-09-25T11:47:40.483Z,47.25
2022-09-25T11:51:11.571Z,47.88
2022-09-25T11:54:33.832Z,46.68
2022-09-25T11:57:51.779Z,46.59
2022-09-25T12:01:07.089Z,44.78
2022-09-25T12:04:25.387Z,45.41
2022-09-25T12:07:40.771Z,46.66
2022-09-25T12:11:11.567Z,46.92
2022-09-25T12:14:51.876Z,47.30
2022-09-25T12:18:07.840Z,47.16
2022-09-25T12:21:15.322Z,47.70
2022-09-25T12:24:20.467Z,47.34
2022-09-25T12:27:31.479Z,47.45
2022-09-25T12:31:14.644Z,45.88
2022-09-25T12:34:34.657Z,47.38
2022-09-25T12:37:43.564Z,47.47
2022-09-25T12:40:49.214Z,47.77
2022-09-25T12:44:01.617Z,48.20
2022-09-25T12:47:27.022Z,47.60
2022-09-25T12:50:34.282Z,46.54
2022-09-25T12:53:58.166Z,47.66
2022-09-25T12:57:19.189Z,47.41
2022-09-25T13:00:24.215Z,47.37
2022-09-25T13:03:37.794Z,47.46
2022-09-25T13:07:00.520Z,47.48
2022-09-25T13:10:09.977Z,47.64
2022-09-25T13:13:24.855Z,47.56
2022-09-25T13:16:26.899Z,47.30
2022-09-25T13:19:33.418Z,47.75
2022-09-25T13:22:41.536Z,47.24
2022-09-25T13:26:09.472Z,47.25
2022-09-25T13:29:41.348Z,47.39
2022-09-25T13:32:48.820Z,48.10
2022-09-25T13:36:07.233Z,47.57
2022-09-25T13:39:37.031Z,48.03
2022-09-25T13:42:46.283Z,47.77
2022-09-25T13:45:50.396Z,48.09
2022-09-25T13:48:53.191Z,47.75
2022-09-25T13:51:55.175Z,48.05
2022-09-25T13:55:18.507Z,48.05
2022-09-25T13:58:25.871Z,47.67
2022-09-25T14:01:45.810Z,48.21
2022-09-25T14:04:48.740Z,48.10
2022-09-25T14:07:56.182Z,48.23
2022-09-25T14:11:01.059Z,48.48
2022-09-25T14:14:10.280Z,48.53
2022-09-25T14:17:19.053Z,48.43
2022-09-25T14:20:29.125Z,48.77
2022-09-25T14:23:33.372Z,48.61
2022-09-25T14:26:35.313Z,48.96
2022-09-25T14:29:40.917Z,48.47
2022-09-25T14:32:56.569Z,49.09
2022-09-25T14:36:25.933Z,48.59
2022-09-25T14:39:39.987Z,48.58
2022-09-25T14:43:13.062Z,48.39
2022-09-25T14:46:20.100Z,48.44
2022-09-25T14:49:27.127Z,48.85
2022-09-25T14:52:32.872Z,48.49
2022-09-25T14:55:38.411Z,48.93
2022-09-25T14:58:53.736Z,48.62
2022-09-25T15:01:55.843Z,49.09
2022-09-25T15:04:58.965Z,49.24
2022-09-25T15:08:02.715Z,49.15
2022-09-25T15:11:11.915Z,49.12
2022-09-25T15:14:21.523Z,49.29
2022-09-25T15:17:24.170Z,49.70
2022-09-25T15:20:31.012Z,49.22
2022-09-25T15:23:35.354Z,49.42
2022-09-25T15:26:45.046Z,49.81
2022-09-25T15:29:48.618Z,49.59
2022-09-25T15:33:00.753Z,49.57
2022-09-25T15:36:21.983Z,49.54
2022-09-25T15:39:26.252Z,50.25
2022-09-25T15:42:28.398Z,50.01
2022-09-25T15:45:46.991Z,50.25
2022-09-25T15:48:57.496Z,50.46
2022-09-25T15:52:03.077Z,49.81
2022-09-25T15:55:14.774Z,50.38
2022-09-25T15:58:19.244Z,50.10
2022-09-25T16:01:43.653Z,50.15
2022-09-25T16:04:52.172Z,50.66
2022-09-25T16:08:36.553Z,50.55
2022-09-25T16:11:38.871Z,50.44
2022-09-25T16:14:40.874Z,50.22
2022-09-25T16:17:43.258Z,50.59
2022-09-25T16:20:45.913Z,50.54
2022-09-25T16:24:00.917Z,50.68
2022-09-25T16:27:04.793Z,50.85
2022-09-25T16:30:16.322Z,50.75
2022-09-25T16:33:43.758Z,50.53
2022-09-25T16:36:47.556Z,50.86
2022-09-25T16:40:09.654Z,50.50
2022-09-25T16:43:26.074Z,50.66
2022-09-25T16:46:29.250Z,50.65
2022-09-25T16:49:33.835Z,51.39
2022-09-25T16:52:36.236Z,51.53
2022-09-25T16:55:47.658Z,50.98
2022-09-25T16:58:50.087Z,51.46
2022-09-25T17:02:01.396Z,51.46
2022-09-25T17:05:16.086Z,51.82
2022-09-25T17:08:20.873Z,51.33
2022-09-25T17:11:23.210Z,51.69
2022-09-25T17:14:27.046Z,51.50
2022-09-25T17:17:31.119Z,51.76
2022-09-25T17:20:34.005Z,51.48
2022-09-25T17:23:36.139Z,51.55
2022-09-25T17:26:38.740Z,51.45
2022-09-25T17:29:41.709Z,52.16
2022-09-25T17:32:44.897Z,51.97
2022-09-25T17:35:59.571Z,51.57
2022-09-25T17:39:01.526Z,51.62
2022-09-25T17:42:04.201Z,51.96
2022-09-25T17:45:24.921Z,51.89
2022-09-25T17:48:30.180Z,52.33
2022-09-25T17:51:32.318Z,51.90
2022-09-25T17:54:34.394Z,52.74
2022-09-25T17:57:36.393Z,52.63
2022-09-25T18:00:38.331Z,52.36
2022-09-25T18:03:40.282Z,52.02
2022-09-25T18:06:43.580Z,52.59
2022-09-25T18:09:45.607Z,52.39
2022-09-25T18:12:47.625Z,52.61
2022-09-25T18:15:53.819Z,53.01
2022-09-25T18:19:14.565Z,53.12
2022-09-25T18:22:21.904Z,52.87
2022-09-25T18:25:24.474Z,52.92
2022-09-25T18:28:26.599Z,52.83
2022-09-25T18:31:29.888Z,52.38
2022-09-25T18:34:31.887Z,53.06
2022-09-25T18:37:33.942Z,53.00
2022-09-25T18:40:36.039Z,53.22
2022-09-25T18:43:38.074Z,52.77
2022-09-25T18:46:40.410Z,53.27
2022-09-25T18:49:43.196Z,52.88
2022-09-25T18:52:45.513Z,53.70
2022-09-25T18:55:47.472Z,53.28
2022-09-25T18:58:51.822Z,53.14
2022-09-25T19:01:55.853Z,53.42
2022-09-25T19:05:00.062Z,53.04
2022-09-25T19:08:03.573Z,53.51
2022-09-25T19:11:12.929Z,52.78
2022-09-25T19:14:16.582Z,53.22
2022-09-25T19:17:19.278Z,53.55
2022-09-25T19:20:21.281Z,53.08
2022-09-25T19:23:25.135Z,53.29
2022-09-25T19:26:27.525Z,53.51
2022-09-25T19:29:29.525Z,53.66
2022-09-25T19:32:31.522Z,53.50
2022-09-25T19:35:33.505Z,53.27
2022-09-25T19:38:37.686Z,53.13
2022-09-25T19:41:41.164Z,53.00
2022-09-25T19:44:43.926Z,53.68
2022-09-25T19:47:45.821Z,53.10
2022-09-25T19:50:48.004Z,53.49
2022-09-25T19:53:50.732Z,53.62
2022-09-25T19:56:52.689Z,52.93
2022-09-25T19:59:55.023Z,53.03
2022-09-25T20:02:57.165Z,53.48
2022-09-25T20:06:02.131Z,52.90
2022-09-25T20:09:05.637Z,53.03
2022-09-25T20:12:07.853Z,53.37
2022-09-25T20:15:10.191Z,53.00
2022-09-25T20:18:12.163Z,53.49
2022-09-25T20:21:15.429Z,53.05
2022-09-25T20:24:18.217Z,53.26
2022-09-25T20:27:23.227Z,53.39
2022-09-25T20:30:26.833Z,53.27
2022-09-25T20:33:34.441Z,53.14
2022-09-25T20:36:37.874Z,53.76
2022-09-25T20:39:39.987Z,53.38
2022-09-25T20:42:42.949Z,53.80
2022-09-25T20:45:45.135Z,53.72
2022-09-25T20:48:51.201Z,52.98
2022-09-25T20:51:53.524Z,52.94
2022-09-25T20:54:56.482Z,53.08
2022-09-25T20:57:58.839Z,53.51
2022-09-25T21:01:06.468Z,53.96
2022-09-25T21:04:10.021Z,53.89
2022-09-25T21:07:16.761Z,53.37
2022-09-25T21:10:19.657Z,53.52
2022-09-25T21:13:21.561Z,53.77
2022-09-25T21:16:24.759Z,53.14
2022-09-25T21:19:28.077Z,53.72
2022-09-25T21:22:30.060Z,53.72
2022-09-25T21:25:33.345Z,53.67
2022-09-25T21:28:35.306Z,53.45
2022-09-25T21:31:39.336Z,53.28
2022-09-25T21:34:41.336Z,53.11
2022-09-25T21:37:43.275Z,53.02
2022-09-25T21:40:45.365Z,53.15
2022-09-25T21:43:48.312Z,53.21
2022-09-25T21:46:50.815Z,53.56
2022-09-25T21:49:54.979Z,53.20
2022-09-25T21:52:57.063Z,53.64
2022-09-25T21:56:05.103Z,53.25
2022-09-25T21:59:09.285Z,53.24
2022-09-25T22:02:11.559Z,53.87
2022-09-25T22:05:16.442Z,53.95
2022-09-25T22:08:18.620Z,53.80
2022-09-25T22:11:21.706Z,53.25
2022-09-25T22:14:23.935Z,53.53
2022-09-25T22:17:25.883Z,53.25
2022-09-25T22:20:27.870Z,53.28
2022-09-25T22:23:29.926Z,53.63
2022-09-25T22:26:35.493Z,53.72
2022-09-25T22:29:37.468Z,53.93
2022-09-25T22:32:39.478Z,53.40
2022-09-25T22:35:41.498Z,53.54
2022-09-25T22:38:43.509Z,53.39
2022-09-25T22:41:48.826Z,53.83
2022-09-25T22:44:50.730Z,54.03
2022-09-25T22:47:52.859Z,53.54
2022-09-25T22:51:00.873Z,53.67
2022-09-25T22:54:02.840Z,53.56
2022-09-25T22:57:04.773Z,54.11
2022-09-25T23:00:09.311Z,54.23
2022-09-25T23:03:11.434Z,53.37
2022-09-25T23:06:13.364Z,54.09
2022-09-25T23:09:18.042Z,53.43
2022-09-25T23:12:20.077Z,54.23
2022-09-25T23:15:22.233Z,53.89
2022-09-25T23:18:24.227Z,54.31
2022-09-25T23:21:27.351Z,53.58
2022-09-25T23:24:29.628Z,54.34
2022-09-25T23:27:31.642Z,54.08
2022-09-25T23:30:33.625Z,53.81
2022-09-25T23:33:36.686Z,54.48
2022-09-25T23:36:39.139Z,54.11
2022-09-25T23:39:41.503Z,54.44
2022-09-25T23:42:43.490Z,54.49
2022-09-25T23:45:45.417Z,54.00
2022-09-25T23:48:48.056Z,54.30
2022-09-25T23:51:50.199Z,54.56
2022-09-25T23:54:52.130Z,54.10
2022-09-25T23:57:54.301Z,53.74
